createdAt,value
2023-05-10T05:03:04.179Z,24.77
2023-05-10T05:04:05.082Z,24.77
2023-05-10T05:05:05.117Z,24.78
2023-05-10T05:06:05.114Z,24.75
2023-05-10T05:07:04.174Z,24.77
2023-05-10T05:08:05.192Z,24.78
2023-05-10T05:09:05.207Z,24.81
2023-05-10T05:10:05.261Z,24.81
2023-05-10T05:11:04.327Z,24.82
2023-05-10T05:12:05.363Z,24.82
2023-05-10T05:13:04.431Z,24.83
2023-05-10T05:14:04.415Z,24.83
2023-05-10T05:15:04.498Z,24.82
2023-05-10T05:16:04.533Z,24.86
2023-05-10T05:17:04.486Z,24.85
2023-05-10T05:18:05.634Z,24.86
2023-05-10T05:19:04.560Z,24.85
2023-05-10T05:20:04.598Z,24.88
2023-05-10T05:21:05.595Z,24.86
2023-05-10T05:22:04.605Z,24.88
2023-05-10T05:23:05.657Z,24.89
2023-05-10T05:24:05.670Z,24.88
2023-05-10T05:25:04.710Z,24.89
2023-05-10T05:26:05.743Z,24.89
2023-05-10T05:27:05.722Z,24.88
2023-05-10T05:28:04.733Z,24.88
2023-05-10T05:29:04.745Z,24.90
2023-05-10T05:30:05.764Z,24.89
2023-05-10T05:31:04.795Z,24.86
2023-05-10T05:32:04.871Z,24.89
2023-05-10T05:33:05.875Z,24.90
2023-05-10T05:34:04.884Z,24.89
2023-05-10T05:35:04.846Z,24.89
2023-05-10T05:36:05.900Z,24.89
2023-05-10T05:37:04.892Z,24.90
2023-05-10T05:38:05.894Z,24.90
2023-05-10T05:39:04.921Z,24.90
2023-05-10T05:40:05.927Z,24.90
2023-05-10T05:41:05.948Z,24.90
2023-05-10T05:42:04.958Z,24.89
2023-05-10T05:43:04.980Z,24.90
2023-05-10T05:44:05.991Z,24.90
2023-05-10T05:45:06.007Z,24.92
2023-05-10T05:46:06.099Z,24.92
2023-05-10T05:47:06.026Z,24.95
2023-05-10T05:48:06.090Z,24.90
2023-05-10T05:49:06.066Z,24.89
2023-05-10T05:50:05.111Z,24.90
2023-05-10T05:51:07.384Z,24.90
2023-05-10T05:52:05.105Z,24.90
2023-05-10T05:53:06.112Z,24.90
2023-05-10T05:54:06.137Z,24.92
2023-05-10T05:55:06.142Z,24.90
2023-05-10T05:56:06.174Z,24.92
2023-05-10T05:57:05.186Z,24.92
2023-05-10T05:58:05.198Z,24.92
2023-05-10T05:59:05.271Z,24.93
2023-05-10T06:00:06.221Z,24.95
2023-05-10T06:01:06.229Z,24.93
2023-05-10T06:02:06.760Z,24.95
2023-05-10T06:03:06.305Z,24.92
2023-05-10T06:04:06.345Z,24.93
2023-05-10T06:05:05.289Z,24.96
2023-05-10T06:06:05.317Z,25.07
2023-05-10T06:07:05.313Z,25.15
2023-05-10T06:08:06.312Z,25.24
2023-05-10T06:09:06.320Z,25.29
2023-05-10T06:10:05.318Z,25.37
2023-05-10T06:11:06.353Z,25.38
2023-05-10T06:12:05.424Z,25.44
2023-05-10T06:13:06.485Z,25.44
2023-05-10T06:14:06.530Z,25.51
2023-05-10T06:15:06.610Z,25.50
2023-05-10T06:16:05.630Z,25.45
2023-05-10T06:17:05.728Z,25.52
2023-05-10T06:18:06.830Z,25.55
2023-05-10T06:19:06.814Z,25.60
2023-05-10T06:20:05.863Z,25.64
2023-05-10T06:21:06.920Z,25.65
2023-05-10T06:22:06.291Z,25.62
2023-05-10T06:23:06.043Z,25.65
2023-05-10T06:24:07.099Z,25.71
2023-05-10T06:25:07.141Z,25.75
2023-05-10T06:26:07.184Z,25.69
2023-05-10T06:27:06.234Z,25.77
2023-05-10T06:28:06.286Z,25.81
2023-05-10T06:29:07.321Z,25.79
2023-05-10T06:30:13.054Z,25.79
2023-05-10T06:31:07.389Z,25.84
2023-05-10T06:32:07.465Z,25.84
2023-05-10T06:33:07.374Z,25.88
2023-05-10T06:34:07.328Z,25.88
2023-05-10T06:35:06.329Z,25.91
2023-05-10T06:36:06.322Z,25.88
2023-05-10T06:37:07.323Z,25.91
2023-05-10T06:38:07.432Z,25.85
2023-05-10T06:39:06.314Z,25.89
2023-05-10T06:40:07.302Z,25.91
2023-05-10T06:41:07.293Z,25.92
2023-05-10T06:42:07.307Z,25.93
2023-05-10T06:43:07.377Z,25.89
2023-05-10T06:44:07.267Z,25.92
2023-05-10T06:45:07.269Z,25.91
2023-05-10T06:46:06.306Z,25.91
2023-05-10T06:47:07.249Z,25.89
2023-05-10T06:48:06.278Z,25.93
2023-05-10T06:49:07.259Z,25.95
2023-05-10T06:50:07.338Z,25.92
2023-05-10T06:51:06.219Z,25.88
2023-05-10T06:52:06.268Z,25.84
2023-05-10T06:53:07.758Z,25.81
2023-05-10T06:54:07.250Z,25.85
2023-05-10T06:55:07.225Z,25.79
2023-05-10T06:56:06.187Z,25.77
2023-05-10T06:57:13.093Z,25.74
2023-05-10T06:58:07.164Z,25.81
2023-05-10T06:59:07.230Z,25.88
2023-05-10T07:00:06.265Z,25.85
2023-05-10T07:01:06.252Z,25.92
2023-05-10T07:02:07.168Z,25.96
2023-05-10T07:03:07.194Z,25.93
2023-05-10T07:04:07.148Z,25.95
2023-05-10T07:05:07.120Z,25.92
2023-05-10T07:06:07.770Z,25.95
2023-05-10T07:07:07.112Z,25.88
2023-05-10T07:08:06.123Z,25.88
2023-05-10T07:09:07.133Z,25.81
2023-05-10T07:10:06.119Z,25.81
2023-05-10T07:11:06.084Z,25.91
2023-05-10T07:12:07.864Z,25.93
2023-05-10T07:13:07.258Z,25.92
2023-05-10T07:14:07.214Z,25.95
2023-05-10T07:15:06.224Z,25.96
2023-05-10T07:16:07.306Z,25.92
2023-05-10T07:17:07.315Z,25.95
2023-05-10T07:18:07.595Z,26.02
2023-05-10T07:19:06.381Z,26.06
2023-05-10T07:20:06.372Z,26.03
2023-05-10T07:21:06.418Z,26.02
2023-05-10T07:22:06.387Z,26.03
2023-05-10T07:23:06.371Z,26.03
2023-05-10T07:24:07.398Z,25.97
2023-05-10T07:25:07.497Z,26.02
2023-05-10T07:26:07.436Z,26.00
2023-05-10T07:27:06.435Z,26.02
2023-05-10T07:28:07.439Z,26.02
2023-05-10T07:29:06.690Z,25.99
2023-05-10T07:30:07.472Z,26.00
2023-05-10T07:31:07.514Z,25.99
2023-05-10T07:32:07.565Z,25.95
2023-05-10T07:33:07.589Z,25.95
2023-05-10T07:34:07.521Z,25.96
2023-05-10T07:35:07.534Z,25.93
2023-05-10T07:36:07.554Z,25.89
2023-05-10T07:37:06.595Z,25.89
2023-05-10T07:38:06.594Z,25.92
2023-05-10T07:39:07.632Z,25.86
2023-05-10T07:40:06.656Z,25.85
2023-05-10T07:41:06.741Z,25.79
2023-05-10T07:42:07.735Z,25.79
2023-05-10T07:43:07.749Z,25.74
2023-05-10T07:44:07.786Z,25.69
2023-05-10T07:45:06.829Z,25.68
2023-05-10T07:46:07.933Z,25.71
2023-05-10T07:47:07.281Z,25.64
2023-05-10T07:48:07.990Z,25.65
2023-05-10T07:49:08.036Z,25.64
2023-05-10T07:50:08.089Z,25.64
2023-05-10T07:51:08.123Z,25.68
2023-05-10T07:52:08.305Z,25.68
2023-05-10T07:53:08.249Z,25.67
2023-05-10T07:54:08.258Z,25.62
2023-05-10T07:55:07.431Z,25.60
2023-05-10T07:56:08.443Z,25.58
2023-05-10T07:57:08.476Z,25.55
2023-05-10T07:58:07.498Z,25.54
2023-05-10T07:59:09.759Z,25.51
2023-05-10T08:00:07.539Z,25.51
2023-05-10T08:01:08.537Z,25.47
2023-05-10T08:02:07.592Z,25.47
2023-05-10T08:03:08.765Z,25.44
2023-05-10T08:04:08.708Z,25.45
2023-05-10T08:05:08.500Z,25.41
2023-05-10T08:06:07.479Z,25.40
2023-05-10T08:07:08.489Z,25.38
2023-05-10T08:08:07.482Z,25.36
2023-05-10T08:09:07.462Z,25.36
2023-05-10T08:10:07.469Z,25.32
2023-05-10T08:11:07.525Z,25.33
2023-05-10T08:12:08.455Z,25.32
2023-05-10T08:13:07.460Z,25.33
2023-05-10T08:14:07.429Z,25.33
2023-05-10T08:15:07.425Z,25.30
2023-05-10T08:16:07.418Z,25.32
2023-05-10T08:17:08.416Z,25.29
2023-05-10T08:18:08.410Z,25.30
2023-05-10T08:19:08.413Z,25.30
2023-05-10T08:20:07.374Z,25.29
2023-05-10T08:21:07.359Z,25.29
2023-05-10T08:22:07.368Z,25.27
2023-05-10T08:23:07.355Z,25.27
2023-05-10T08:24:08.351Z,25.29
2023-05-10T08:25:08.336Z,25.27
2023-05-10T08:26:07.354Z,25.26
2023-05-10T08:27:07.329Z,25.24
2023-05-10T08:28:08.077Z,25.24
2023-05-10T08:29:07.374Z,25.26
2023-05-10T08:30:08.301Z,25.23
2023-05-10T08:31:08.328Z,25.24
2023-05-10T08:32:08.277Z,25.24
2023-05-10T08:33:07.326Z,25.22
2023-05-10T08:34:08.259Z,25.24
2023-05-10T08:35:08.280Z,25.23
2023-05-10T08:36:07.298Z,25.24
2023-05-10T08:37:07.301Z,25.23
2023-05-10T08:38:08.326Z,25.23
2023-05-10T08:39:16.195Z,25.24
2023-05-10T08:40:08.371Z,25.24
2023-05-10T08:41:08.360Z,25.23
2023-05-10T08:42:07.326Z,25.24
2023-05-10T08:43:07.796Z,25.26
2023-05-10T08:44:08.303Z,25.24
2023-05-10T08:45:08.342Z,25.26
2023-05-10T08:46:08.417Z,25.24
2023-05-10T08:47:07.503Z,25.24
2023-05-10T08:48:07.367Z,25.26
2023-05-10T08:49:08.272Z,25.26
2023-05-10T08:50:08.273Z,25.26
2023-05-10T08:51:08.268Z,25.24
2023-05-10T08:52:08.293Z,25.24
2023-05-10T08:53:08.306Z,25.23
2023-05-10T08:54:08.238Z,25.26
2023-05-10T08:55:07.236Z,25.26
2023-05-10T08:56:07.232Z,25.26
2023-05-10T08:57:07.222Z,25.24
2023-05-10T08:58:08.324Z,25.24
2023-05-10T08:59:08.212Z,25.26
2023-05-10T09:00:07.208Z,25.27
2023-05-10T09:01:07.271Z,25.26
2023-05-10T09:02:07.198Z,25.27
2023-05-10T09:03:08.253Z,25.24
2023-05-10T09:04:07.283Z,25.27
2023-05-10T09:05:08.221Z,25.27
2023-05-10T09:06:08.161Z,25.26
2023-05-10T09:07:08.154Z,25.26
2023-05-10T09:08:08.147Z,25.26
2023-05-10T09:09:07.127Z,25.29
2023-05-10T09:10:08.128Z,25.27
2023-05-10T09:11:07.121Z,25.27
2023-05-10T09:12:07.108Z,25.30
2023-05-10T09:13:08.119Z,25.27
2023-05-10T09:14:08.108Z,25.26
2023-05-10T09:15:08.096Z,25.26
2023-05-10T09:16:20.571Z,25.26
2023-05-10T09:17:08.159Z,25.29
2023-05-10T09:18:08.109Z,25.27
2023-05-10T09:19:08.247Z,25.29
2023-05-10T09:20:08.039Z,25.29
2023-05-10T09:21:08.061Z,25.29
2023-05-10T09:22:07.035Z,25.29
2023-05-10T09:23:07.071Z,25.32
2023-05-10T09:24:07.047Z,25.32
2023-05-10T09:25:08.024Z,25.33
2023-05-10T09:26:08.012Z,25.32
2023-05-10T09:27:08.012Z,25.36
2023-05-10T09:28:08.007Z,25.36
2023-05-10T09:29:06.989Z,25.36
2023-05-10T09:30:07.986Z,25.36
2023-05-10T09:31:08.002Z,25.36
2023-05-10T09:32:07.967Z,25.37
2023-05-10T09:33:07.010Z,25.43
2023-05-10T09:34:07.940Z,25.44
2023-05-10T09:35:06.936Z,25.50
2023-05-10T09:36:07.933Z,25.45
2023-05-10T09:37:07.941Z,25.48
2023-05-10T09:38:07.919Z,25.52
2023-05-10T09:39:07.917Z,25.54
2023-05-10T09:40:07.944Z,25.52
2023-05-10T09:41:08.007Z,25.57
2023-05-10T09:42:08.068Z,25.57
2023-05-10T09:43:08.170Z,25.58
2023-05-10T09:44:07.199Z,25.58
2023-05-10T09:45:08.263Z,25.58
2023-05-10T09:46:07.393Z,25.62
2023-05-10T09:47:08.404Z,25.62
2023-05-10T09:48:08.861Z,25.61
2023-05-10T09:49:08.529Z,25.64
2023-05-10T09:50:08.568Z,25.61
2023-05-10T09:51:07.624Z,25.62
2023-05-10T09:52:07.671Z,25.65
2023-05-10T09:53:08.819Z,25.67
2023-05-10T09:54:08.795Z,25.68
2023-05-10T09:55:08.828Z,25.67
2023-05-10T09:56:07.908Z,25.67
2023-05-10T09:57:08.992Z,25.69
2023-05-10T09:58:08.070Z,25.67
2023-05-10T09:59:09.076Z,25.68
2023-05-10T10:00:09.143Z,25.68
2023-05-10T10:01:09.242Z,25.72
2023-05-10T10:02:09.211Z,25.71
2023-05-10T10:03:09.296Z,25.71
2023-05-10T10:04:09.360Z,25.71
2023-05-10T10:05:08.445Z,25.72
2023-05-10T10:06:18.896Z,25.71
2023-05-10T10:07:09.406Z,25.67
2023-05-10T10:08:08.379Z,25.75
2023-05-10T10:09:09.395Z,25.71
2023-05-10T10:10:08.356Z,25.68
2023-05-10T10:11:08.343Z,25.72
2023-05-10T10:12:09.333Z,25.67
2023-05-10T10:13:09.343Z,25.68
2023-05-10T10:14:09.385Z,25.71
2023-05-10T10:15:09.414Z,25.72
2023-05-10T10:16:09.400Z,25.74
2023-05-10T10:17:09.386Z,25.72
2023-05-10T10:18:08.462Z,25.69
2023-05-10T10:19:08.460Z,25.74
2023-05-10T10:20:11.136Z,25.71
2023-05-10T10:21:08.549Z,25.68
2023-05-10T10:22:09.507Z,25.68
2023-05-10T10:23:09.523Z,25.65
2023-05-10T10:24:09.503Z,25.69
2023-05-10T10:25:08.490Z,25.69
2023-05-10T10:26:08.488Z,25.69
2023-05-10T10:27:09.480Z,25.67
2023-05-10T10:28:08.487Z,25.65
2023-05-10T10:29:09.461Z,25.67
2023-05-10T10:30:09.444Z,25.64
2023-05-10T10:31:09.477Z,25.67
2023-05-10T10:32:10.482Z,25.65
2023-05-10T10:33:16.843Z,25.64
2023-05-10T10:34:09.434Z,25.64
2023-05-10T10:35:08.447Z,25.62
2023-05-10T10:36:09.393Z,25.62
2023-05-10T10:37:09.444Z,25.58
2023-05-10T10:38:09.411Z,25.64
2023-05-10T10:39:08.382Z,25.60
2023-05-10T10:40:09.377Z,25.64
2023-05-10T10:41:09.355Z,25.60
2023-05-10T10:42:08.355Z,25.62
2023-05-10T10:43:09.392Z,25.62
2023-05-10T10:44:09.848Z,25.67
2023-05-10T10:45:09.502Z,25.69
2023-05-10T10:46:08.558Z,25.72
2023-05-10T10:47:08.686Z,25.69
2023-05-10T10:48:09.743Z,25.64
2023-05-10T10:49:09.699Z,25.68
2023-05-10T10:50:08.785Z,25.68
2023-05-10T10:51:12.248Z,25.71
2023-05-10T10:52:08.816Z,25.74
2023-05-10T10:53:08.863Z,25.71
2023-05-10T10:54:08.794Z,25.72
2023-05-10T10:55:08.791Z,25.74
2023-05-10T10:56:08.813Z,25.75
2023-05-10T10:57:08.771Z,25.71
2023-05-10T10:58:09.794Z,25.75
2023-05-10T10:59:09.766Z,25.74
2023-05-10T11:00:08.751Z,25.72
2023-05-10T11:01:09.804Z,25.78
2023-05-10T11:02:09.749Z,25.78
2023-05-10T11:03:09.781Z,25.78
2023-05-10T11:04:08.797Z,25.81
2023-05-10T11:05:08.720Z,25.77
2023-05-10T11:06:09.738Z,25.78
2023-05-10T11:07:09.703Z,25.74
2023-05-10T11:08:08.698Z,25.78
2023-05-10T11:09:09.733Z,25.77
2023-05-10T11:10:08.679Z,25.81
2023-05-10T11:11:08.689Z,25.88
2023-05-10T11:12:09.663Z,25.93
2023-05-10T11:13:09.653Z,25.96
2023-05-10T11:14:09.659Z,26.00
2023-05-10T11:15:08.640Z,26.06
2023-05-10T11:16:09.647Z,26.05
2023-05-10T11:17:08.798Z,26.09
2023-05-10T11:18:08.631Z,26.10
2023-05-10T11:19:09.822Z,26.12
2023-05-10T11:20:09.612Z,26.15
2023-05-10T11:21:08.588Z,26.17
2023-05-10T11:22:08.585Z,26.17
2023-05-10T11:23:08.578Z,26.20
2023-05-10T11:24:09.624Z,26.23
2023-05-10T11:25:09.600Z,26.24
2023-05-10T11:26:08.583Z,26.23
2023-05-10T11:27:09.598Z,26.29
2023-05-10T11:28:08.533Z,26.33
2023-05-10T11:29:09.546Z,26.31
2023-05-10T11:30:08.536Z,26.24
2023-05-10T11:31:08.550Z,26.16
2023-05-10T11:32:08.582Z,26.19
2023-05-10T11:33:08.541Z,26.12
2023-05-10T11:34:09.530Z,26.12
2023-05-10T11:35:09.487Z,26.06
2023-05-10T11:36:08.477Z,26.06
2023-05-10T11:37:08.545Z,26.00
2023-05-10T11:38:12.501Z,26.00
2023-05-10T11:39:08.882Z,25.99
2023-05-10T11:40:08.465Z,25.95
2023-05-10T11:41:08.497Z,25.96
2023-05-10T11:42:08.546Z,25.93
2023-05-10T11:43:09.494Z,25.91
2023-05-10T11:44:09.506Z,25.91
2023-05-10T11:45:09.453Z,25.86
2023-05-10T11:46:09.477Z,25.85
2023-05-10T11:47:09.407Z,25.85
2023-05-10T11:48:08.445Z,25.85
2023-05-10T11:49:09.401Z,25.81
2023-05-10T11:50:09.429Z,25.84
2023-05-10T11:51:09.397Z,25.81
2023-05-10T11:52:08.422Z,25.78
2023-05-10T11:53:08.368Z,25.78
2023-05-10T11:54:09.362Z,25.77
2023-05-10T11:55:08.383Z,25.75
2023-05-10T11:56:09.366Z,25.77
2023-05-10T11:57:09.379Z,25.75
2023-05-10T11:58:09.315Z,25.75
2023-05-10T11:59:09.507Z,25.78
2023-05-10T12:00:09.306Z,25.71
2023-05-10T12:01:09.353Z,25.72
2023-05-10T12:02:09.299Z,25.58
2023-05-10T12:03:09.351Z,25.60
2023-05-10T12:04:09.546Z,25.57
2023-05-10T12:05:09.322Z,25.65
2023-05-10T12:06:09.365Z,25.64
2023-05-10T12:07:09.355Z,25.69
2023-05-10T12:08:08.265Z,25.71
2023-05-10T12:09:09.409Z,25.78
2023-05-10T12:10:09.222Z,25.82
2023-05-10T12:11:09.291Z,25.88
2023-05-10T12:12:09.301Z,25.89
2023-05-10T12:13:09.318Z,25.86
2023-05-10T12:14:08.276Z,25.89
2023-05-10T12:15:08.296Z,25.89
2023-05-10T12:16:09.323Z,25.93
2023-05-10T12:17:09.338Z,25.92
2023-05-10T12:18:09.389Z,25.92
2023-05-10T12:19:09.443Z,25.99
2023-05-10T12:20:08.397Z,25.97
2023-05-10T12:21:09.409Z,25.96
2023-05-10T12:22:09.449Z,25.99
2023-05-10T12:23:09.447Z,26.00
2023-05-10T12:24:09.492Z,25.99
2023-05-10T12:25:09.908Z,26.02
2023-05-10T12:26:08.465Z,25.99
2023-05-10T12:27:08.490Z,26.02
2023-05-10T12:28:09.502Z,26.00
2023-05-10T12:29:09.520Z,25.99
2023-05-10T12:30:09.503Z,26.00
2023-05-10T12:31:09.558Z,25.99
2023-05-10T12:32:08.615Z,25.93
2023-05-10T12:33:08.587Z,25.96
2023-05-10T12:34:09.576Z,25.95
2023-05-10T12:35:09.597Z,25.99
2023-05-10T12:36:09.595Z,26.03
2023-05-10T12:37:08.652Z,26.06
2023-05-10T12:38:08.633Z,26.06
2023-05-10T12:39:09.637Z,26.06
2023-05-10T12:40:09.653Z,26.10
2023-05-10T12:41:09.673Z,26.13
2023-05-10T12:42:09.636Z,26.16
2023-05-10T12:43:09.636Z,26.16
2023-05-10T12:44:08.650Z,26.15
2023-05-10T12:45:09.683Z,26.19
2023-05-10T12:46:09.830Z,26.19
2023-05-10T12:47:08.705Z,26.13
2023-05-10T12:48:09.696Z,26.15
2023-05-10T12:49:09.979Z,26.16
2023-05-10T12:50:08.663Z,26.20
2023-05-10T12:51:08.667Z,26.17
2023-05-10T12:52:09.669Z,26.13
2023-05-10T12:53:09.666Z,26.19
2023-05-10T12:54:09.713Z,26.19
2023-05-10T12:55:09.667Z,26.22
2023-05-10T12:56:08.693Z,26.20
2023-05-10T12:57:08.661Z,26.19
2023-05-10T12:58:08.667Z,26.19
2023-05-10T12:59:08.685Z,26.16
2023-05-10T13:00:09.702Z,26.19
2023-05-10T13:01:08.745Z,26.16
2023-05-10T13:02:08.683Z,26.23
2023-05-10T13:03:09.749Z,26.20
2023-05-10T13:04:08.883Z,26.23
2023-05-10T13:05:08.875Z,26.23
2023-05-10T13:06:09.755Z,26.17
2023-05-10T13:07:09.701Z,26.23
2023-05-10T13:08:08.734Z,26.07
2023-05-10T13:09:09.746Z,26.15
2023-05-10T13:10:08.901Z,26.17
2023-05-10T13:11:09.740Z,26.22
2023-05-10T13:12:10.139Z,26.19
2023-05-10T13:13:09.791Z,26.22
2023-05-10T13:14:08.761Z,26.19
2023-05-10T13:15:09.736Z,26.20
2023-05-10T13:16:09.747Z,26.22
2023-05-10T13:17:09.918Z,26.24
2023-05-10T13:18:08.777Z,26.23
2023-05-10T13:19:09.832Z,26.24
2023-05-10T13:20:09.798Z,26.23
2023-05-10T13:21:08.777Z,26.24
2023-05-10T13:22:09.766Z,26.24
2023-05-10T13:23:09.781Z,26.22
2023-05-10T13:24:08.784Z,26.23
2023-05-10T13:25:08.788Z,26.19
2023-05-10T13:26:09.768Z,26.22
2023-05-10T13:27:09.794Z,26.17
2023-05-10T13:28:09.778Z,26.26
2023-05-10T13:29:09.789Z,26.22
2023-05-10T13:30:09.849Z,26.24
2023-05-10T13:31:09.802Z,26.24
2023-05-10T13:32:08.781Z,26.26
2023-05-10T13:33:08.988Z,26.27
2023-05-10T13:34:09.762Z,26.26
2023-05-10T13:35:08.775Z,26.30
2023-05-10T13:36:08.798Z,26.29
2023-05-10T13:37:09.774Z,26.27
2023-05-10T13:38:09.764Z,26.29
2023-05-10T13:39:08.757Z,26.29
2023-05-10T13:40:09.859Z,26.30
2023-05-10T13:41:09.790Z,26.30
2023-05-10T13:42:09.831Z,26.26
2023-05-10T13:43:09.828Z,26.27
2023-05-10T13:44:10.129Z,26.26
2023-05-10T13:45:08.920Z,26.26
2023-05-10T13:46:08.837Z,26.26
2023-05-10T13:47:10.011Z,26.33
2023-05-10T13:48:08.929Z,26.34
2023-05-10T13:49:10.108Z,26.37
2023-05-10T13:50:08.905Z,26.34
2023-05-10T13:51:09.885Z,26.31
2023-05-10T13:52:09.898Z,26.36
2023-05-10T13:53:09.930Z,26.33
2023-05-10T13:54:11.341Z,26.31
2023-05-10T13:55:09.873Z,26.23
2023-05-10T13:56:09.863Z,26.22
2023-05-10T13:57:09.872Z,26.17
2023-05-10T13:58:08.853Z,26.13
2023-05-10T13:59:08.859Z,26.12
2023-05-10T14:00:09.868Z,26.17
2023-05-10T14:01:09.847Z,26.10
2023-05-10T14:02:09.906Z,26.06
2023-05-10T14:03:09.865Z,26.03
2023-05-10T14:04:09.003Z,25.93
2023-05-10T14:05:08.841Z,25.91
2023-05-10T14:06:09.794Z,25.86
2023-05-10T14:07:09.781Z,25.84
2023-05-10T14:08:09.794Z,25.85
2023-05-10T14:09:09.782Z,25.77
2023-05-10T14:10:08.779Z,25.79
2023-05-10T14:11:09.763Z,25.72
2023-05-10T14:12:09.768Z,25.71
2023-05-10T14:13:09.767Z,25.69
2023-05-10T14:14:09.754Z,25.64
2023-05-10T14:15:09.739Z,25.62
2023-05-10T14:16:08.760Z,25.55
2023-05-10T14:17:12.244Z,25.55
2023-05-10T14:18:09.794Z,25.51
2023-05-10T14:19:09.767Z,25.50
2023-05-10T14:20:08.696Z,25.45
2023-05-10T14:21:09.715Z,25.47
2023-05-10T14:22:08.718Z,25.45
2023-05-10T14:23:11.780Z,25.45
2023-05-10T14:24:08.678Z,25.48
2023-05-10T14:25:08.706Z,25.47
2023-05-10T14:26:09.711Z,25.48
2023-05-10T14:27:09.671Z,25.51
2023-05-10T14:28:08.706Z,25.50
2023-05-10T14:29:12.152Z,25.51
2023-05-10T14:30:09.634Z,25.51
2023-05-10T14:31:09.619Z,25.43
2023-05-10T14:32:08.707Z,25.34
2023-05-10T14:33:09.627Z,25.22
2023-05-10T14:34:08.592Z,25.17
2023-05-10T14:35:12.192Z,25.15
2023-05-10T14:36:09.583Z,25.07
2023-05-10T14:37:08.615Z,25.03
2023-05-10T14:38:08.578Z,24.98
2023-05-10T14:39:09.555Z,24.92
2023-05-10T14:40:08.550Z,24.89
2023-05-10T14:41:10.527Z,24.86
2023-05-10T14:42:08.561Z,24.83
2023-05-10T14:43:09.530Z,24.82
2023-05-10T14:44:08.533Z,24.77
2023-05-10T14:45:08.543Z,24.72
2023-05-10T14:46:09.550Z,24.71
2023-05-10T14:47:11.878Z,24.72
2023-05-10T14:48:09.500Z,24.67
2023-05-10T14:49:09.497Z,24.60
2023-05-10T14:50:08.485Z,24.54
2023-05-10T14:51:08.484Z,24.46
2023-05-10T14:52:08.494Z,24.43
2023-05-10T14:53:09.475Z,24.44
2023-05-10T14:54:08.440Z,24.38
2023-05-10T14:55:08.454Z,24.36
2023-05-10T14:56:09.426Z,24.40
2023-05-10T14:57:08.419Z,24.38
2023-05-10T14:58:08.417Z,24.34
2023-05-10T14:59:09.402Z,24.36
2023-05-10T15:00:09.397Z,24.31
2023-05-10T15:01:09.393Z,24.31
2023-05-10T15:02:09.429Z,24.27
2023-05-10T15:03:09.449Z,24.27
2023-05-10T15:04:08.363Z,24.27
2023-05-10T15:05:08.357Z,24.29
2023-05-10T15:06:08.372Z,24.21
2023-05-10T15:07:08.338Z,24.21
2023-05-10T15:08:09.327Z,24.19
2023-05-10T15:09:08.354Z,24.20
2023-05-10T15:10:08.367Z,24.17
2023-05-10T15:11:09.325Z,24.20
2023-05-10T15:12:08.309Z,24.19
2023-05-10T15:13:08.292Z,24.26
2023-05-10T15:14:08.274Z,24.27
2023-05-10T15:15:09.344Z,24.29
2023-05-10T15:16:09.572Z,24.30
2023-05-10T15:17:09.429Z,24.29
2023-05-10T15:18:09.609Z,24.29
2023-05-10T15:19:08.755Z,24.36
2023-05-10T15:20:08.620Z,24.43
2023-05-10T15:21:09.705Z,24.47
2023-05-10T15:22:08.699Z,24.53
2023-05-10T15:23:08.724Z,24.58
2023-05-10T15:24:09.808Z,24.62
2023-05-10T15:25:09.878Z,24.70
2023-05-10T15:26:08.911Z,24.75
2023-05-10T15:27:08.826Z,24.78
2023-05-10T15:28:08.849Z,24.81
2023-05-10T15:29:08.921Z,24.85
2023-05-10T16:41:05.938Z,24.85
2023-05-10T16:42:06.775Z,24.85
